Time;durP1;ratioP1;P1;durP2;ratioP2;P2;SDS_P1;SDS_P2;PMS_P1;PMS_P2;Temp;Humidity;BMP_temperature;BMP_pressure;BME280_temperature;BME280_humidity;BME280_pressure;Samples;Min_cycle;Max_cycle;Signal;HPM_P1;HPM_P2
2021/10/12 03:59:58;;;;;;;;;45.00;36.00;;;;;14.42;54.10;98752.31;6134356;28;96830;-69
2021/10/12 04:03:01;;;;;;;;;42.60;35.60;;;;;14.42;54.29;98754.22;6131827;28;96845;-69
2021/10/12 04:06:05;;;;;;;;;45.00;35.00;;;;;14.31;54.38;98753.25;6128913;28;97577;-66
2021/10/12 04:09:08;;;;;;;;;44.00;35.00;;;;;14.31;54.38;98737.78;6147551;28;98143;-66
2021/10/12 04:12:12;;;;;;;;;40.50;34.00;;;;;13.67;54.30;98633.56;6124909;28;100101;-66
2021/10/12 04:15:16;;;;;;;;;40.40;33.00;;;;;14.25;54.40;98733.34;6133482;28;96908;-70
2021/10/12 04:18:20;;;;;;;;;36.60;32.80;;;;;14.22;54.21;98728.41;6136425;28;97286;-67
2021/10/12 04:21:23;;;;;;;;;38.40;30.20;;;;;14.25;54.05;98722.50;6149478;28;97823;-67
2021/10/12 04:24:26;;;;;;;;;33.60;30.40;;;;;14.14;54.22;98719.88;6137476;28;98952;-66
2021/10/12 04:27:30;;;;;;;;;35.00;31.00;;;;;14.25;53.87;98719.78;6141934;28;96690;-69
2021/10/12 04:30:34;;;;;;;;;34.25;31.25;;;;;14.20;53.95;98721.63;6141105;28;97545;-69
2021/10/12 04:33:38;;;;;;;;;31.60;28.00;;;;;14.16;53.97;98705.03;6141663;28;96651;-69
2021/10/12 04:36:41;;;;;;;;;34.25;30.00;;;;;14.17;53.71;98708.56;6138245;28;98679;-67
2021/10/12 04:39:44;;;;;;;;;32.40;29.80;;;;;13.57;53.93;98614.44;6144073;28;98368;-70
2021/10/12 04:42:48;;;;;;;;;33.25;28.00;;;;;13.85;53.92;98664.97;6120529;28;98615;-66
2021/10/12 04:45:53;;;;;;;;;34.00;30.00;;;;;14.12;53.99;98706.56;6127319;28;97166;-69
2021/10/12 04:48:56;;;;;;;;;32.40;28.40;;;;;14.13;53.99;98701.97;6128518;28;96688;-70
2021/10/12 04:51:59;;;;;;;;;35.00;30.00;;;;;14.15;53.74;98697.97;6140844;28;97182;-67
2021/10/12 04:55:05;;;;;;;;;33.60;29.60;;;;;14.13;53.92;98699.25;6142319;28;96794;-67
2021/10/12 04:58:09;;;;;;;;;34.00;29.40;;;;;13.78;54.25;98650.81;6121058;28;96652;-66
2021/10/12 05:01:14;;;;;;;;;35.50;31.00;;;;;14.05;54.09;98691.56;6162969;28;98192;-70
2021/10/12 05:04:17;;;;;;;;;30.80;28.80;;;;;14.05;53.80;98691.56;6186824;28;97531;-70
2021/10/12 05:07:21;;;;;;;;;35.00;30.00;;;;;14.03;53.82;98690.97;6185328;28;97634;-68
2021/10/12 05:10:24;;;;;;;;;31.40;29.40;;;;;13.97;54.01;98664.91;6182533;28;97466;-67
2021/10/12 05:13:28;;;;;;;;;33.00;28.00;;;;;13.86;53.50;98639.53;6182312;28;97016;-69
2021/10/12 05:16:34;;;;;;;;;31.00;28.00;;;;;14.14;53.56;98679.22;6189514;28;97587;-67
2021/10/12 05:19:38;;;;;;;;;31.40;29.40;;;;;13.47;53.44;98552.00;6180804;28;97464;-66
2021/10/12 05:22:41;;;;;;;;;33.00;29.00;;;;;14.21;53.33;98672.56;6171928;28;97482;-68
2021/10/12 05:25:47;;;;;;;;;30.00;27.00;;;;;14.28;53.11;98680.50;6185587;28;98855;-67
2021/10/12 05:28:51;;;;;;;;;32.25;26.25;;;;;14.31;53.16;98669.19;6184863;28;97349;-67
2021/10/12 05:31:56;;;;;;;;;33.50;27.50;;;;;14.37;52.69;98670.88;6181468;28;97072;-66
2021/10/12 05:34:59;;;;;;;;;29.50;27.25;;;;;14.42;52.42;98664.72;6204271;28;97663;-64
2021/10/12 05:38:03;;;;;;;;;30.50;26.50;;;;;14.44;52.45;98665.28;6188654;28;96917;-64
2021/10/12 05:41:07;;;;;;;;;28.00;23.40;;;;;14.37;51.89;98670.88;6191482;28;96768;-65
2021/10/12 05:44:11;;;;;;;;;27.80;24.80;;;;;14.63;51.91;98672.03;6187310;28;97280;-67
2021/10/12 05:47:15;;;;;;;;;23.00;22.40;;;;;14.72;51.72;98671.34;6186262;28;97545;-68
2021/10/12 05:50:19;;;;;;;;;24.50;21.50;;;;;14.76;51.67;98673.56;6187976;28;97370;-67
2021/10/12 05:53:25;;;;;;;;;25.00;22.00;;;;;14.72;51.92;98676.75;6187108;28;96682;-66
2021/10/12 05:56:37;;;;;;;;;25.80;22.60;;;;;14.69;51.91;98658.28;6188118;28;97528;-69
2021/10/12 05:59:40;;;;;;;;;26.40;23.00;;;;;14.86;51.84;98665.50;6192993;28;96888;-65
2021/10/12 06:02:46;;;;;;;;;26.00;22.40;;;;;14.98;51.80;98667.03;6185288;28;96957;-66
2021/10/12 06:05:50;;;;;;;;;25.00;22.00;;;;;15.20;51.47;98664.25;6190073;28;99548;-69
2021/10/12 06:08:53;;;;;;;;;28.40;25.60;;;;;15.39;50.82;98662.00;6188009;28;96851;-65
2021/10/12 06:11:57;;;;;;;;;27.80;24.40;;;;;15.31;50.96;98655.13;6188250;28;96347;-68
2021/10/12 06:15:00;;;;;;;;;26.00;24.20;;;;;15.23;50.92;98655.59;6182617;28;96962;-64
2021/10/12 06:18:05;;;;;;;;;31.50;27.25;;;;;15.18;51.12;98658.25;6188394;28;96580;-66
2021/10/12 06:21:09;;;;;;;;;31.25;27.50;;;;;15.23;51.05;98661.03;6188934;28;97416;-65
2021/10/12 06:24:13;;;;;;;;;27.20;24.60;;;;;15.31;50.69;98665.16;6185884;28;97913;-67
2021/10/12 06:27:16;;;;;;;;;27.60;24.60;;;;;15.35;50.79;98664.38;6186857;28;96798;-68
2021/10/12 06:30:20;;;;;;;;;31.60;26.80;;;;;15.33;51.12;98663.03;6185502;28;96735;-68
2021/10/12 06:33:26;;;;;;;;;28.40;25.80;;;;;15.25;51.24;98668.94;6183723;28;97072;-67
2021/10/12 06:36:31;;;;;;;;;28.33;26.33;;;;;15.05;50.90;98628.81;6186944;28;97360;-66
2021/10/12 06:39:35;;;;;;;;;30.00;25.00;;;;;15.27;51.08;98673.00;6188149;28;97443;-69
2021/10/12 06:42:38;;;;;;;;;27.50;25.75;;;;;15.41;51.06;98662.53;6187298;28;97370;-63
2021/10/12 06:45:42;;;;;;;;;27.80;24.00;;;;;15.37;50.84;98661.41;6185537;28;99997;-63
2021/10/12 06:48:46;;;;;;;;;29.00;24.00;;;;;15.41;50.84;98674.22;6186165;28;97376;-68
2021/10/12 06:51:49;;;;;;;;;29.00;26.80;;;;;15.42;50.74;98673.16;6186058;28;96700;-63
2021/10/12 06:54:55;;;;;;;;;32.80;28.00;;;;;15.35;51.11;98679.88;6186317;28;96483;-64
2021/10/12 06:57:59;;;;;;;;;28.60;25.00;;;;;15.40;51.15;98683.44;6177702;28;97932;-66
2021/10/12 07:01:02;;;;;;;;;26.00;23.40;;;;;15.35;51.07;98682.56;6188815;28;96734;-66
2021/10/12 07:04:07;;;;;;;;;25.20;22.40;;;;;15.32;51.17;98683.94;6185779;28;96728;-63
2021/10/12 07:07:10;;;;;;;;;26.00;25.00;;;;;15.40;50.99;98688.88;6186828;28;97393;-68
2021/10/12 07:10:15;;;;;;;;;27.00;25.00;;;;;15.28;51.23;98684.69;6186167;28;97201;-63
2021/10/12 07:13:24;;;;;;;;;27.60;24.00;;;;;15.33;51.28;98688.28;6185254;28;97415;-65
2021/10/12 07:16:27;;;;;;;;;28.75;24.25;;;;;15.29;51.32;98683.63;6173271;28;96674;-65
2021/10/12 07:19:32;;;;;;;;;26.00;22.75;;;;;15.22;51.41;98689.25;6192575;28;96968;-68
2021/10/12 07:22:36;;;;;;;;;24.40;23.20;;;;;15.22;51.22;98683.00;6188330;28;96707;-66
2021/10/12 07:25:39;;;;;;;;;27.00;23.00;;;;;15.33;51.11;98688.28;6189556;28;96440;-68
2021/10/12 07:28:42;;;;;;;;;29.00;26.00;;;;;14.87;51.27;98613.69;6189969;28;97100;-65
2021/10/12 07:31:45;;;;;;;;;27.40;24.00;;;;;15.01;51.38;98638.53;6184890;28;96543;-65
2021/10/12 07:34:50;;;;;;;;;26.80;25.20;;;;;15.36;51.24;98689.66;6191960;28;96678;-64
2021/10/12 07:37:55;;;;;;;;;26.00;24.00;;;;;15.09;51.54;98660.63;6190146;28;98585;-65
2021/10/12 07:40:58;;;;;;;;;28.00;23.00;;;;;15.30;51.38;98679.81;6189175;28;96648;-67
2021/10/12 07:44:02;;;;;;;;;28.50;25.00;;;;;15.37;51.22;98672.28;6189027;28;97380;-65
2021/10/12 07:47:06;;;;;;;;;27.80;24.80;;;;;15.50;51.14;98674.56;6188552;28;97469;-63
2021/10/12 07:50:11;;;;;;;;;29.60;26.00;;;;;15.60;51.12;98677.41;6190698;28;99932;-67
2021/10/12 07:53:15;;;;;;;;;27.20;23.60;;;;;15.50;51.19;98680.81;6190357;28;96587;-67
2021/10/12 07:56:27;;;;;;;;;27.60;25.40;;;;;15.56;51.22;98682.53;6191747;28;96907;-69
2021/10/12 07:59:30;;;;;;;;;28.20;24.20;;;;;15.40;51.34;98666.31;6189693;28;97421;-67
2021/10/12 08:02:33;;;;;;;;;27.40;24.40;;;;;15.52;51.15;98680.59;6189037;28;98595;-67
2021/10/12 08:05:39;;;;;;;;;31.00;26.00;;;;;15.58;51.14;98674.16;6191445;28;96548;-68
2021/10/12 08:08:42;;;;;;;;;29.40;27.00;;;;;15.72;51.18;98675.34;6196944;28;96712;-67
2021/10/12 08:11:45;;;;;;;;;25.40;23.40;;;;;15.86;50.61;98668.38;6190558;28;97467;-68
2021/10/12 08:14:54;;;;;;;;;25.80;22.00;;;;;15.98;50.08;98665.44;6191645;28;96460;-67
2021/10/12 08:17:57;;;;;;;;;28.80;24.00;;;;;16.04;50.05;98659.78;6189690;28;97544;-64
2021/10/12 08:21:02;;;;;;;;;27.60;24.60;;;;;16.03;49.76;98660.03;6182221;28;98715;-63
2021/10/12 08:24:06;;;;;;;;;27.80;25.00;;;;;16.11;49.88;98659.56;6188849;28;96676;-68
2021/10/12 08:27:09;;;;;;;;;30.00;26.00;;;;;16.15;49.52;98655.25;6188901;28;97398;-65
2021/10/12 08:30:13;;;;;;;;;30.75;27.00;;;;;16.29;49.52;98666.47;6190251;28;97496;-68
2021/10/12 08:33:16;;;;;;;;;29.20;27.00;;;;;16.33;49.38;98660.22;6188023;28;97900;-67
2021/10/12 08:36:21;;;;;;;;;30.40;26.60;;;;;16.37;49.04;98660.53;6188866;28;98219;-66
2021/10/12 08:39:43;;;;;;;;;28.00;24.50;;;;;16.33;49.04;98664.84;6189734;28;98509;-65
2021/10/12 08:42:48;;;;;;;;;29.25;25.00;;;;;16.34;48.70;98661.88;6191843;28;96548;-69
2021/10/12 08:45:52;;;;;;;;;29.50;25.50;;;;;16.39;48.68;98658.34;6182221;28;96576;-68
2021/10/12 08:48:56;;;;;;;;;30.60;26.80;;;;;16.56;48.39;98656.28;6189112;28;98635;-67
2021/10/12 08:52:03;;;;;;;;;29.00;26.00;;;;;16.63;48.10;98661.50;6190056;28;97108;-64
2021/10/12 08:55:07;;;;;;;;;32.25;26.25;;;;;16.71;48.06;98656.34;6188893;28;97479;-65
2021/10/12 08:58:11;;;;;;;;;27.40;26.40;;;;;17.09;47.38;98654.28;6182485;28;97551;-66
2021/10/12 09:01:17;;;;;;;;;32.00;25.60;;;;;17.28;46.89;98658.94;6187399;28;99365;-68
2021/10/12 09:04:21;;;;;;;;;26.60;24.00;;;;;17.30;46.56;98656.75;6187554;28;97560;-67
2021/10/12 09:07:28;;;;;;;;;27.00;23.50;;;;;17.22;46.39;98667.38;6185066;28;97240;-68
2021/10/12 09:10:32;;;;;;;;;27.00;24.67;;;;;17.17;46.31;98662.75;6188905;28;97209;-68
2021/10/12 09:13:44;;;;;;;;;26.75;25.00;;;;;17.16;46.32;98652.09;6190997;28;96606;-66
2021/10/12 09:16:47;;;;;;;;;26.25;23.25;;;;;17.14;46.69;98657.03;6184406;28;98516;-68
2021/10/12 09:19:51;;;;;;;;;27.00;24.80;;;;;17.20;45.59;98659.47;6185509;28;97446;-67
2021/10/12 09:23:08;;;;;;;;;28.80;26.00;;;;;17.22;45.74;98654.56;6185065;28;98459;-68
2021/10/12 09:26:22;;;;;;;;;25.20;23.00;;;;;17.22;45.49;98657.31;6183713;28;96641;-68
2021/10/12 09:29:29;;;;;;;;;29.00;26.60;;;;;17.30;45.54;98643.13;6183603;28;96659;-68
2021/10/12 09:32:37;;;;;;;;;26.00;24.40;;;;;17.92;44.05;98647.53;6187254;28;96584;-68
2021/10/12 09:35:43;;;;;;;;;28.20;24.20;;;;;18.37;42.93;98640.34;6184245;28;97127;-67
2021/10/12 09:38:47;;;;;;;;;25.80;23.00;;;;;18.66;42.32;98640.53;6189491;28;97339;-65
2021/10/12 09:41:57;;;;;;;;;25.00;24.00;;;;;18.73;42.18;98632.81;6187069;28;97017;-64
2021/10/12 09:45:00;;;;;;;;;29.00;24.00;;;;;18.67;42.23;98628.50;6185039;28;96596;-68
2021/10/12 09:48:28;;;;;;;;;25.60;24.00;;;;;18.58;41.73;98631.81;6201052;28;97478;-68
2021/10/12 09:51:31;;;;;;;;;26.00;25.00;;;;;18.47;42.00;98626.66;6185413;28;96756;-65
2021/10/12 09:54:37;;;;;;;;;27.00;25.00;;;;;18.14;41.98;98625.38;6180794;28;96603;-66
2021/10/12 09:57:42;;;;;;;;;26.00;24.00;;;;;18.02;42.26;98616.69;6188914;28;96998;-67
2021/10/12 10:00:46;;;;;;;;;26.00;22.80;;;;;18.22;42.29;98622.09;6181254;28;96767;-65
2021/10/12 10:03:49;;;;;;;;;24.33;24.00;;;;;18.53;41.94;98617.31;6186382;28;97277;-69
2021/10/12 10:06:58;;;;;;;;;29.00;24.00;;;;;18.59;41.69;98603.41;6168379;28;98009;-65
2021/10/12 10:10:05;;;;;;;;;25.60;23.00;;;;;18.89;40.88;98599.69;6187318;28;97221;-66
2021/10/12 10:13:09;;;;;;;;;26.60;22.60;;;;;18.91;40.67;98586.56;6182579;28;97741;-66
2021/10/12 10:16:16;;;;;;;;;24.00;23.00;;;;;18.95;40.69;98593.13;6180863;28;97314;-69
2021/10/12 10:19:23;;;;;;;;;24.00;21.60;;;;;18.90;40.85;98587.69;6183072;28;98044;-68
2021/10/12 10:22:42;;;;;;;;;26.00;23.20;;;;;18.85;41.07;98578.69;6185586;28;97147;-66
2021/10/12 10:25:50;;;;;;;;;26.00;22.00;;;;;18.81;40.58;98580.38;6187264;28;97230;-66
2021/10/12 10:28:55;;;;;;;;;23.00;21.00;;;;;19.93;38.76;98580.28;6187030;28;97518;-64
2021/10/12 10:32:01;;;;;;;;;24.00;20.00;;;;;21.17;36.52;98581.69;6185615;28;97486;-65
2021/10/12 10:35:12;;;;;;;;;23.00;19.50;;;;;22.41;34.24;98580.06;6181773;28;97410;-67
2021/10/12 10:38:35;;;;;;;;;22.00;21.20;;;;;23.52;31.78;98582.22;6186788;28;97202;-67
2021/10/12 10:41:40;;;;;;;;;18.00;16.00;;;;;24.44;30.02;98559.38;6187753;28;97572;-66
2021/10/12 10:44:56;;;;;;;;;19.50;17.25;;;;;25.21;28.76;98555.94;6185449;28;97494;-66
2021/10/12 10:48:04;;;;;;;;;16.00;15.00;;;;;25.91;28.29;98563.78;6185375;28;97518;-68
2021/10/12 10:51:20;;;;;;;;;14.40;14.00;;;;;26.15;27.85;98564.00;6188458;28;97548;-68
2021/10/12 10:55:03;;;;;;;;;13.25;12.75;;;;;26.48;26.61;98552.34;6185420;28;96769;-65
2021/10/12 10:58:14;;;;;;;;;13.00;11.50;;;;;25.98;26.28;98543.94;6190592;28;96879;-67
2021/10/12 11:01:35;;;;;;;;;14.00;12.40;;;;;25.22;26.89;98535.47;6188480;28;97984;-67
2021/10/12 11:04:42;;;;;;;;;12.25;11.00;;;;;24.66;27.14;98514.34;6192815;28;97466;-69
2021/10/12 11:07:46;;;;;;;;;13.00;11.00;;;;;24.81;27.76;98546.97;6191560;28;96604;-69
2021/10/12 11:10:55;;;;;;;;;9.00;9.00;;;;;24.09;27.47;98539.94;6187339;28;96537;-68
2021/10/12 11:14:01;;;;;;;;;10.00;9.50;;;;;23.69;27.97;98503.34;6190302;28;96677;-67
2021/10/12 11:17:09;;;;;;;;;10.60;9.60;;;;;23.27;28.83;98528.63;6190056;28;96726;-69
2021/10/12 11:20:14;;;;;;;;;9.00;8.40;;;;;22.68;28.93;98521.47;6191563;28;96897;-66
2021/10/12 11:23:24;;;;;;;;;6.60;6.00;;;;;22.12;28.72;98521.88;6191114;28;97803;-68
2021/10/12 11:26:29;;;;;;;;;3.40;3.40;;;;;21.66;28.69;98516.44;6190576;28;97541;-68
2021/10/12 11:29:34;;;;;;;;;3.00;3.00;;;;;21.29;28.81;98509.16;6191184;28;96889;-65
2021/10/12 11:32:37;;;;;;;;;3.80;3.00;;;;;20.87;28.72;98512.81;6188968;28;97910;-66
2021/10/12 11:35:42;;;;;;;;;5.00;5.00;;;;;21.21;28.94;98504.38;6190229;28;97432;-65
2021/10/12 11:38:47;;;;;;;;;3.00;3.00;;;;;21.27;28.54;98503.13;6185233;28;97622;-65
2021/10/12 11:41:51;;;;;;;;;3.60;3.00;;;;;21.67;27.70;98501.59;6184285;28;96453;-67
2021/10/12 11:44:56;;;;;;;;;4.00;4.00;;;;;22.66;27.22;98502.56;6189923;28;97495;-72
2021/10/12 11:47:59;;;;;;;;;3.00;3.00;;;;;23.48;25.53;98483.00;6189401;28;96847;-67
2021/10/12 11:51:17;;;;;;;;;4.00;3.00;;;;;24.02;24.63;98484.53;6189386;28;97033;-68
2021/10/12 11:54:23;;;;;;;;;4.00;3.00;;;;;24.55;24.93;98494.56;6184582;28;96661;-66
2021/10/12 11:57:26;;;;;;;;;4.00;3.00;;;;;25.33;23.73;98496.19;6191905;28;97127;-71
2021/10/12 12:00:48;;;;;;;;;3.40;3.40;;;;;25.60;22.56;98485.94;6189575;28;97464;-69
2021/10/12 12:03:52;;;;;;;;;3.50;3.50;;;;;26.14;21.90;98495.28;6188973;28;96694;-68
2021/10/12 12:06:57;;;;;;;;;2.00;2.00;;;;;26.50;21.32;98490.03;6204710;28;97744;-68
2021/10/12 12:10:01;;;;;;;;;4.00;3.00;;;;;26.68;20.97;98487.97;6187134;28;96835;-68
2021/10/12 12:13:05;;;;;;;;;4.00;3.00;;;;;26.97;21.75;98478.81;6189393;28;97058;-70
2021/10/12 12:16:11;;;;;;;;;4.00;4.00;;;;;26.89;20.70;98471.38;6187718;28;97975;-67
2021/10/12 12:19:22;;;;;;;;;3.00;3.00;;;;;26.32;21.25;98468.38;6189694;28;97458;-66
2021/10/12 12:22:27;;;;;;;;;3.00;3.00;;;;;26.19;21.36;98465.50;6188310;28;97612;-65
2021/10/12 12:25:30;;;;;;;;;3.00;3.00;;;;;25.70;21.69;98463.47;6188236;28;97512;-66
2021/10/12 12:28:34;;;;;;;;;3.00;3.00;;;;;25.03;22.52;98461.34;6188688;28;97675;-69
2021/10/12 12:31:47;;;;;;;;;4.00;4.00;;;;;24.95;22.79;98462.16;6180391;28;96667;-68
2021/10/12 12:35:00;;;;;;;;;2.00;2.00;;;;;25.07;22.82;98462.28;6191309;28;96650;-68
2021/10/12 12:38:04;;;;;;;;;3.20;3.00;;;;;24.92;21.73;98455.34;6205142;28;97321;-64
2021/10/12 12:41:18;;;;;;;;;4.60;4.00;;;;;24.90;21.61;98454.06;6183083;28;96640;-69
2021/10/12 12:44:23;;;;;;;;;3.00;3.00;;;;;25.07;21.89;98442.22;6189991;28;97419;-64
2021/10/12 12:47:28;;;;;;;;;5.00;5.00;;;;;25.06;22.18;98444.16;6182656;28;97097;-64
2021/10/12 12:50:33;;;;;;;;;4.00;3.00;;;;;25.19;22.52;98436.81;6188729;28;97477;-65
2021/10/12 12:53:41;;;;;;;;;3.00;3.00;;;;;25.21;22.42;98435.34;6190185;28;97565;-66
2021/10/12 12:56:49;;;;;;;;;4.00;3.00;;;;;25.36;22.29;98434.81;6190391;28;97548;-63
2021/10/12 13:00:01;;;;;;;;;3.60;3.60;;;;;25.46;21.67;98436.44;6165220;28;98374;-67
2021/10/12 13:03:06;;;;;;;;;3.00;3.00;;;;;25.45;21.97;98440.31;6184933;28;97918;-67
2021/10/12 13:06:10;;;;;;;;;3.00;3.00;;;;;25.29;21.78;98429.00;6180445;28;99175;-64
2021/10/12 13:09:13;;;;;;;;;3.00;3.00;;;;;24.94;22.62;98435.72;6186728;28;97580;-67
2021/10/12 13:12:19;;;;;;;;;5.00;4.00;;;;;24.76;22.96;98434.09;6188093;28;96725;-64
2021/10/12 13:15:22;;;;;;;;;5.00;4.00;;;;;24.40;23.38;98437.16;6186223;28;97808;-65
2021/10/12 13:18:27;;;;;;;;;2.50;2.00;;;;;23.92;23.89;98434.44;6172191;28;99860;-65
2021/10/12 13:21:30;;;;;;;;;5.60;4.00;;;;;23.40;24.32;98420.47;6186716;28;98474;-67
2021/10/12 13:24:38;;;;;;;;;5.00;5.00;;;;;22.86;25.41;98416.94;6188651;28;96722;-70
2021/10/12 13:27:42;;;;;;;;;7.00;6.00;;;;;22.43;26.01;98421.25;6189456;28;97961;-65
2021/10/12 13:30:45;;;;;;;;;5.25;5.00;;;;;22.08;26.69;98420.13;6183784;28;98455;-64
2021/10/12 13:33:49;;;;;;;;;4.20;4.00;;;;;21.75;27.14;98419.38;6186970;28;100068;-63
2021/10/12 13:36:55;;;;;;;;;5.00;5.00;;;;;21.53;27.91;98417.38;6184055;28;97928;-67
2021/10/12 13:40:00;;;;;;;;;5.00;3.60;;;;;21.08;27.61;98421.75;6184192;28;97283;-64
2021/10/12 13:43:04;;;;;;;;;4.80;4.80;;;;;20.94;28.54;98415.41;6172937;28;96585;-66
2021/10/12 13:46:07;;;;;;;;;4.00;4.00;;;;;20.74;28.47;98421.25;6169321;28;97296;-66
2021/10/12 13:49:13;;;;;;;;;4.20;3.20;;;;;20.50;29.22;98421.34;6187202;28;96657;-65
2021/10/12 13:52:20;;;;;;;;;4.00;4.00;;;;;20.38;30.57;98418.22;6174947;28;96830;-67
2021/10/12 13:55:23;;;;;;;;;5.80;4.80;;;;;20.20;30.68;98400.69;6175545;28;97130;-67
2021/10/12 13:58:27;;;;;;;;;6.00;6.00;;;;;20.18;31.19;98404.84;6177397;28;97439;-66
2021/10/12 14:01:32;;;;;;;;;5.40;5.00;;;;;20.03;31.72;98402.31;6177644;28;99477;-67
2021/10/12 14:04:37;;;;;;;;;6.00;6.00;;;;;19.86;32.08;98408.28;6153101;28;98902;-67
2021/10/12 14:07:42;;;;;;;;;6.00;6.00;;;;;19.75;32.17;98398.56;6174513;28;99142;-64
2021/10/12 14:10:46;;;;;;;;;5.33;4.00;;;;;19.89;31.90;98403.00;6171750;28;97188;-65
2021/10/12 14:13:50;;;;;;;;;6.60;6.00;;;;;20.18;31.50;98388.41;6169637;28;98040;-66
2021/10/12 14:16:53;;;;;;;;;4.00;4.00;;;;;20.21;30.77;98390.56;6166056;28;96634;-66
2021/10/12 14:19:58;;;;;;;;;4.00;4.00;;;;;20.33;30.80;98389.00;6167446;28;97648;-63
2021/10/12 14:23:04;;;;;;;;;5.00;4.00;;;;;20.25;30.75;98378.72;6168626;28;97794;-66
2021/10/12 14:26:07;;;;;;;;;3.00;3.00;;;;;20.44;31.01;98388.84;6168182;28;98011;-66
2021/10/12 14:29:11;;;;;;;;;4.20;4.20;;;;;20.69;30.53;98377.50;6171925;28;97077;-65
2021/10/12 14:32:14;;;;;;;;;5.00;5.00;;;;;20.94;30.03;98379.78;6176105;28;97454;-65
2021/10/12 14:35:19;;;;;;;;;5.00;4.00;;;;;21.02;29.79;98373.63;6181015;28;97020;-63
2021/10/12 14:38:22;;;;;;;;;6.00;4.75;;;;;21.09;29.90;98376.78;6186185;28;96924;-65
2021/10/12 14:41:26;;;;;;;;;5.00;4.00;;;;;21.01;29.62;98365.72;6184767;28;97041;-66
2021/10/12 14:44:31;;;;;;;;;6.00;5.00;;;;;20.97;30.16;98367.41;6174130;28;97182;-64
2021/10/12 14:47:34;;;;;;;;;5.00;5.00;;;;;20.86;30.42;98366.81;6180903;28;96823;-68
2021/10/12 14:50:41;;;;;;;;;5.00;5.00;;;;;20.82;30.34;98373.19;6191858;28;97493;-65
2021/10/12 14:54:02;;;;;;;;;5.00;5.00;;;;;20.67;30.29;98375.03;6171900;28;96697;-64
2021/10/12 14:57:05;;;;;;;;;5.00;5.00;;;;;20.56;30.32;98372.78;6185990;28;96896;-67
2021/10/12 15:00:10;;;;;;;;;6.00;5.00;;;;;20.33;30.67;98369.03;6187694;28;96573;-65
2021/10/12 15:03:14;;;;;;;;;7.00;6.00;;;;;20.26;31.16;98368.56;6188201;28;97844;-64
2021/10/12 15:06:20;;;;;;;;;8.40;7.00;;;;;20.17;31.48;98364.88;6189516;28;97046;-67
2021/10/12 15:09:23;;;;;;;;;6.00;6.00;;;;;20.00;31.77;98362.66;6187353;28;97457;-65
2021/10/12 15:12:27;;;;;;;;;8.00;8.00;;;;;19.82;32.13;98366.19;6188458;28;97012;-65
2021/10/12 15:15:30;;;;;;;;;6.20;6.00;;;;;19.63;32.75;98368.91;6188108;28;96629;-64
2021/10/12 15:18:33;;;;;;;;;7.00;6.25;;;;;19.40;33.35;98364.25;6184946;28;97258;-64
2021/10/12 15:21:40;;;;;;;;;7.00;6.00;;;;;19.20;33.83;98361.75;6185346;28;97760;-67
2021/10/12 15:24:43;;;;;;;;;7.20;6.00;;;;;19.00;34.50;98355.41;6187884;28;96627;-65
2021/10/12 15:27:49;;;;;;;;;8.40;7.00;;;;;18.79;34.73;98353.97;6186065;28;97156;-65
2021/10/12 15:30:53;;;;;;;;;8.00;8.00;;;;;18.65;35.33;98357.66;6187435;28;96891;-65
2021/10/12 15:33:56;;;;;;;;;7.00;7.00;;;;;18.48;35.57;98358.03;6184158;28;96726;-67
2021/10/12 15:37:01;;;;;;;;;8.00;8.00;;;;;18.25;36.22;98348.66;6194504;28;97321;-64
2021/10/12 15:40:05;;;;;;;;;8.00;7.00;;;;;18.05;36.51;98354.25;6196350;28;96388;-65
2021/10/12 15:43:08;;;;;;;;;8.00;7.20;;;;;17.83;37.43;98357.41;6190384;28;97224;-65
2021/10/12 15:46:12;;;;;;;;;9.60;9.00;;;;;17.56;37.87;98355.03;6185730;28;96984;-64
2021/10/12 15:49:18;;;;;;;;;9.00;8.25;;;;;17.39;38.47;98351.03;6188929;28;97427;-67
2021/10/12 15:52:23;;;;;;;;;8.00;7.60;;;;;17.23;38.97;98351.09;6193575;28;97471;-67
2021/10/12 15:55:26;;;;;;;;;8.75;8.00;;;;;17.12;39.42;98360.38;6193955;28;96731;-66
2021/10/12 15:58:29;;;;;;;;;9.00;8.00;;;;;17.00;39.43;98353.63;6190343;28;97704;-67
2021/10/12 16:01:34;;;;;;;;;8.00;8.00;;;;;16.76;39.55;98337.06;6192923;28;97588;-65
2021/10/12 16:04:41;;;;;;;;;9.80;7.80;;;;;16.60;39.97;98338.16;6186968;28;97236;-68
2021/10/12 16:07:46;;;;;;;;;8.00;7.60;;;;;16.54;40.18;98344.66;6183608;28;98017;-67
2021/10/12 16:10:51;;;;;;;;;9.80;7.80;;;;;16.46;40.20;98356.94;6193049;28;97422;-65
2021/10/12 16:13:54;;;;;;;;;9.80;9.00;;;;;16.30;40.58;98347.94;6193145;28;98356;-65
2021/10/12 16:17:16;;;;;;;;;9.00;9.00;;;;;16.15;40.44;98326.19;6191617;28;97408;-65
2021/10/12 16:23:44;;;;;;;;;11.00;10.00;;;;;16.04;40.93;98351.72;6189620;28;96510;-65
2021/10/12 16:26:49;;;;;;;;;13.60;12.00;;;;;15.88;41.39;98344.63;6194640;28;96637;-65
2021/10/12 16:29:52;;;;;;;;;32.50;24.50;;;;;15.79;41.42;98344.31;6193899;28;96421;-67
2021/10/12 16:33:04;;;;;;;;;20.60;15.60;;;;;15.72;41.74;98356.56;6188149;28;97573;-66
2021/10/12 16:36:09;;;;;;;;;16.00;14.50;;;;;15.65;41.67;98343.22;6189882;28;96928;-67
2021/10/12 16:39:13;;;;;;;;;16.20;14.80;;;;;15.65;41.97;98358.69;6188589;28;97440;-65
2021/10/12 16:42:17;;;;;;;;;14.33;12.67;;;;;15.60;41.93;98364.94;6188142;28;97123;-67
2021/10/12 16:45:21;;;;;;;;;13.00;12.00;;;;;15.56;41.92;98369.25;6170798;28;98559;-65
2021/10/12 16:48:24;;;;;;;;;13.40;11.40;;;;;15.52;41.95;98366.28;6188846;28;97953;-67
2021/10/12 16:51:28;;;;;;;;;15.00;13.00;;;;;15.50;41.98;98365.69;6188020;28;97036;-66
2021/10/12 16:54:32;;;;;;;;;12.80;11.80;;;;;15.52;41.83;98360.84;6191804;28;96761;-66
2021/10/12 16:57:35;;;;;;;;;16.60;15.00;;;;;15.48;41.86;98359.72;6191320;28;96706;-67
2021/10/12 17:00:39;;;;;;;;;15.00;13.80;;;;;15.59;41.97;98366.81;6187992;28;99143;-65
2021/10/12 17:03:42;;;;;;;;;15.40;13.40;;;;;15.55;41.96;98363.00;6169141;28;96862;-68
2021/10/12 17:06:46;;;;;;;;;13.60;12.60;;;;;15.57;41.92;98363.56;6176965;28;97862;-67
2021/10/12 17:09:51;;;;;;;;;16.50;14.00;;;;;15.62;41.83;98361.94;6188138;28;96665;-65
2021/10/12 17:12:55;;;;;;;;;14.00;13.60;;;;;15.63;41.67;98361.69;6176470;28;97447;-65
2021/10/12 17:16:02;;;;;;;;;15.50;15.00;;;;;15.60;41.78;98359.50;6156278;28;99865;-67
2021/10/12 17:19:07;;;;;;;;;17.25;15.00;;;;;15.64;41.60;98357.88;6157046;28;97808;-66
2021/10/12 17:22:10;;;;;;;;;19.00;16.40;;;;;15.65;41.61;98353.25;6179132;28;97051;-64
2021/10/12 17:25:15;;;;;;;;;17.00;16.00;;;;;15.72;41.49;98360.09;6182347;28;97398;-67
2021/10/12 17:28:18;;;;;;;;;16.40;14.40;;;;;15.73;41.20;98356.28;6175039;28;98115;-66
2021/10/12 17:31:22;;;;;;;;;16.00;14.20;;;;;15.76;41.24;98363.06;6181035;28;96712;-64
2021/10/12 17:34:26;;;;;;;;;19.00;17.00;;;;;15.80;41.04;98356.03;6189310;28;97558;-67
2021/10/12 17:37:33;;;;;;;;;17.40;16.20;;;;;15.80;40.99;98356.84;6189784;28;97285;-65
2021/10/12 17:40:38;;;;;;;;;23.00;20.00;;;;;15.77;40.83;98362.81;6190792;28;96534;-66
2021/10/12 17:43:42;;;;;;;;;23.50;20.50;;;;;15.85;40.70;98364.19;6192819;28;97171;-65
2021/10/12 17:46:45;;;;;;;;;20.60;18.80;;;;;15.80;40.49;98361.44;6188587;28;96972;-65
2021/10/12 17:49:49;;;;;;;;;21.80;19.00;;;;;15.72;40.59;98356.56;6187113;28;98088;-67
2021/10/12 17:52:54;;;;;;;;;18.00;16.00;;;;;15.68;40.52;98355.47;6204182;28;96616;-64
2021/10/12 17:55:59;;;;;;;;;21.00;20.00;;;;;15.67;40.51;98361.97;6184631;28;96594;-65
2021/10/12 17:59:03;;;;;;;;;21.00;18.00;;;;;15.70;40.52;98367.69;6186838;28;97298;-67
2021/10/12 18:02:06;;;;;;;;;20.60;19.60;;;;;15.60;40.32;98345.91;6170149;28;96846;-67
2021/10/12 18:05:10;;;;;;;;;22.33;20.33;;;;;15.70;40.40;98367.69;6189357;28;97365;-66
2021/10/12 18:08:14;;;;;;;;;25.60;19.20;;;;;15.70;40.38;98366.84;6188056;28;97903;-64
2021/10/12 18:11:27;;;;;;;;;21.40;21.00;;;;;15.67;40.52;98364.69;6187800;28;97533;-67
2021/10/12 18:14:30;;;;;;;;;19.60;19.00;;;;;15.62;40.26;98362.78;6190154;28;96599;-64
2021/10/12 18:17:34;;;;;;;;;20.50;19.50;;;;;15.60;40.38;98365.75;6186479;28;98132;-64
2021/10/12 18:20:38;;;;;;;;;21.00;19.80;;;;;15.52;40.47;98354.59;6186416;28;96940;-68